sensor_id;sensor_type;location;lat;lon;timestamp;P1;durP1;ratioP1;P2;durP2;ratioP2
44670;SDS011;48397;53.016;-2.260;2023-04-03T00:01:24;12.02;;;5.75;;
44670;SDS011;48397;53.016;-2.260;2023-04-03T00:03:52;12.95;;;5.68;;
44670;SDS011;48397;53.016;-2.260;2023-04-03T00:13:44;14.95;;;5.38;;
44670;SDS011;48397;53.016;-2.260;2023-04-03T00:16:12;11.63;;;5.68;;
44670;SDS011;48397;53.016;-2.260;2023-04-03T00:21:08;13.10;;;5.70;;
44670;SDS011;48397;53.016;-2.260;2023-04-03T00:23:39;14.80;;;5.38;;
44670;SDS011;48397;53.016;-2.260;2023-04-03T00:26:07;18.70;;;5.60;;
44670;SDS011;48397;53.016;-2.260;2023-04-03T00:28:35;19.98;;;6.38;;
44670;SDS011;48397;53.016;-2.260;2023-04-03T00:31:04;23.00;;;6.57;;
44670;SDS011;48397;53.016;-2.260;2023-04-03T00:33:32;20.63;;;6.43;;
44670;SDS011;48397;53.016;-2.260;2023-04-03T00:36:08;18.73;;;5.50;;
44670;SDS011;48397;53.016;-2.260;2023-04-03T00:38:37;19.75;;;6.43;;
44670;SDS011;48397;53.016;-2.260;2023-04-03T00:41:07;16.23;;;6.22;;
44670;SDS011;48397;53.016;-2.260;2023-04-03T00:43:35;18.60;;;5.80;;
44670;SDS011;48397;53.016;-2.260;2023-04-03T00:51:00;15.07;;;5.15;;
44670;SDS011;48397;53.016;-2.260;2023-04-03T00:53:33;17.27;;;5.50;;
44670;SDS011;48397;53.016;-2.260;2023-04-03T00:56:23;21.80;;;6.05;;
44670;SDS011;48397;53.016;-2.260;2023-04-03T00:58:54;17.38;;;6.03;;
44670;SDS011;48397;53.016;-2.260;2023-04-03T01:01:28;17.48;;;5.50;;
44670;SDS011;48397;53.016;-2.260;2023-04-03T01:03:59;14.88;;;5.25;;
44670;SDS011;48397;53.016;-2.260;2023-04-03T01:06:34;18.50;;;5.15;;
44670;SDS011;48397;53.016;-2.260;2023-04-03T01:09:07;18.65;;;5.72;;
44670;SDS011;48397;53.016;-2.260;2023-04-03T01:11:35;15.57;;;5.75;;
44670;SDS011;48397;53.016;-2.260;2023-04-03T01:14:03;15.77;;;5.55;;
44670;SDS011;48397;53.016;-2.260;2023-04-03T01:16:33;13.00;;;5.45;;
44670;SDS011;48397;53.016;-2.260;2023-04-03T01:19:01;15.38;;;5.65;;
44670;SDS011;48397;53.016;-2.260;2023-04-03T01:24:32;15.07;;;5.13;;
44670;SDS011;48397;53.016;-2.260;2023-04-03T01:27:08;20.92;;;6.20;;
44670;SDS011;48397;53.016;-2.260;2023-04-03T01:29:37;13.90;;;5.15;;
44670;SDS011;48397;53.016;-2.260;2023-04-03T01:32:06;15.15;;;6.13;;
44670;SDS011;48397;53.016;-2.260;2023-04-03T01:34:35;26.50;;;6.05;;
44670;SDS011;48397;53.016;-2.260;2023-04-03T01:41:59;20.15;;;6.22;;
44670;SDS011;48397;53.016;-2.260;2023-04-03T01:44:31;24.88;;;6.80;;
44670;SDS011;48397;53.016;-2.260;2023-04-03T01:46:59;16.42;;;6.50;;
44670;SDS011;48397;53.016;-2.260;2023-04-03T01:49:28;18.00;;;5.88;;
44670;SDS011;48397;53.016;-2.260;2023-04-03T01:54:24;18.08;;;6.50;;
44670;SDS011;48397;53.016;-2.260;2023-04-03T01:56:52;21.33;;;5.88;;
44670;SDS011;48397;53.016;-2.260;2023-04-03T01:59:21;18.05;;;5.88;;
44670;SDS011;48397;53.016;-2.260;2023-04-03T02:01:50;23.03;;;6.57;;
44670;SDS011;48397;53.016;-2.260;2023-04-03T02:04:18;18.70;;;6.32;;
44670;SDS011;48397;53.016;-2.260;2023-04-03T02:06:45;13.90;;;5.35;;
44670;SDS011;48397;53.016;-2.260;2023-04-03T02:09:13;19.58;;;5.53;;
44670;SDS011;48397;53.016;-2.260;2023-04-03T02:14:09;14.97;;;5.50;;
44670;SDS011;48397;53.016;-2.260;2023-04-03T02:16:37;21.52;;;5.03;;
44670;SDS011;48397;53.016;-2.260;2023-04-03T02:19:06;16.47;;;5.33;;
44670;SDS011;48397;53.016;-2.260;2023-04-03T02:21:33;12.75;;;4.97;;
44670;SDS011;48397;53.016;-2.260;2023-04-03T02:24:01;18.63;;;5.00;;
44670;SDS011;48397;53.016;-2.260;2023-04-03T02:26:29;11.57;;;4.22;;
44670;SDS011;48397;53.016;-2.260;2023-04-03T02:28:57;14.00;;;5.03;;
44670;SDS011;48397;53.016;-2.260;2023-04-03T02:31:24;14.88;;;4.57;;
44670;SDS011;48397;53.016;-2.260;2023-04-03T02:33:52;10.85;;;4.30;;
44670;SDS011;48397;53.016;-2.260;2023-04-03T02:36:21;14.98;;;5.07;;
44670;SDS011;48397;53.016;-2.260;2023-04-03T02:38:53;15.33;;;4.37;;
44670;SDS011;48397;53.016;-2.260;2023-04-03T02:41:21;15.02;;;5.40;;
44670;SDS011;48397;53.016;-2.260;2023-04-03T02:43:50;13.60;;;4.27;;
44670;SDS011;48397;53.016;-2.260;2023-04-03T02:46:18;14.95;;;4.78;;
44670;SDS011;48397;53.016;-2.260;2023-04-03T02:48:46;14.55;;;4.80;;
44670;SDS011;48397;53.016;-2.260;2023-04-03T02:51:14;17.08;;;5.18;;
44670;SDS011;48397;53.016;-2.260;2023-04-03T02:53:41;12.10;;;4.78;;
44670;SDS011;48397;53.016;-2.260;2023-04-03T02:56:14;16.00;;;4.90;;
44670;SDS011;48397;53.016;-2.260;2023-04-03T02:58:44;12.67;;;4.67;;
44670;SDS011;48397;53.016;-2.260;2023-04-03T03:01:12;14.77;;;5.37;;
44670;SDS011;48397;53.016;-2.260;2023-04-03T03:06:09;11.98;;;4.65;;
44670;SDS011;48397;53.016;-2.260;2023-04-03T03:08:39;19.93;;;5.40;;
44670;SDS011;48397;53.016;-2.260;2023-04-03T03:11:08;10.93;;;4.57;;
44670;SDS011;48397;53.016;-2.260;2023-04-03T03:13:37;15.77;;;4.67;;
44670;SDS011;48397;53.016;-2.260;2023-04-03T03:16:04;18.40;;;5.10;;
44670;SDS011;48397;53.016;-2.260;2023-04-03T03:18:33;12.90;;;4.90;;
44670;SDS011;48397;53.016;-2.260;2023-04-03T03:21:02;10.00;;;4.27;;
44670;SDS011;48397;53.016;-2.260;2023-04-03T03:23:31;14.17;;;5.40;;
44670;SDS011;48397;53.016;-2.260;2023-04-03T03:26:02;11.47;;;4.90;;
44670;SDS011;48397;53.016;-2.260;2023-04-03T03:28:35;11.37;;;4.80;;
44670;SDS011;48397;53.016;-2.260;2023-04-03T03:31:06;17.63;;;5.47;;
44670;SDS011;48397;53.016;-2.260;2023-04-03T03:33:36;20.37;;;5.23;;
44670;SDS011;48397;53.016;-2.260;2023-04-03T03:36:04;17.67;;;5.35;;
44670;SDS011;48397;53.016;-2.260;2023-04-03T03:38:32;16.35;;;4.90;;
44670;SDS011;48397;53.016;-2.260;2023-04-03T03:41:01;12.33;;;5.40;;
44670;SDS011;48397;53.016;-2.260;2023-04-03T03:43:32;22.90;;;6.60;;
44670;SDS011;48397;53.016;-2.260;2023-04-03T03:48:27;16.15;;;5.88;;
44670;SDS011;48397;53.016;-2.260;2023-04-03T03:50:56;17.23;;;5.67;;
44670;SDS011;48397;53.016;-2.260;2023-04-03T03:53:28;14.37;;;5.47;;
44670;SDS011;48397;53.016;-2.260;2023-04-03T03:56:02;11.60;;;4.83;;
44670;SDS011;48397;53.016;-2.260;2023-04-03T03:58:31;18.73;;;6.03;;
44670;SDS011;48397;53.016;-2.260;2023-04-03T04:01:00;16.10;;;7.23;;
44670;SDS011;48397;53.016;-2.260;2023-04-03T04:03:37;16.05;;;5.65;;
44670;SDS011;48397;53.016;-2.260;2023-04-03T04:06:07;14.83;;;5.63;;
44670;SDS011;48397;53.016;-2.260;2023-04-03T04:08:36;14.27;;;5.03;;
44670;SDS011;48397;53.016;-2.260;2023-04-03T04:11:06;11.13;;;5.23;;
44670;SDS011;48397;53.016;-2.260;2023-04-03T04:13:34;14.07;;;5.13;;
44670;SDS011;48397;53.016;-2.260;2023-04-03T04:16:03;14.47;;;5.33;;
44670;SDS011;48397;53.016;-2.260;2023-04-03T04:18:32;18.07;;;5.93;;
44670;SDS011;48397;53.016;-2.260;2023-04-03T04:21:00;17.30;;;5.32;;
44670;SDS011;48397;53.016;-2.260;2023-04-03T04:23:28;14.97;;;5.27;;
44670;SDS011;48397;53.016;-2.260;2023-04-03T04:25:58;12.10;;;4.97;;
44670;SDS011;48397;53.016;-2.260;2023-04-03T04:28:29;18.90;;;5.40;;
44670;SDS011;48397;53.016;-2.260;2023-04-03T04:30:59;18.83;;;5.40;;
44670;SDS011;48397;53.016;-2.260;2023-04-03T04:33:28;16.33;;;5.47;;
44670;SDS011;48397;53.016;-2.260;2023-04-03T04:35:58;13.87;;;5.47;;
44670;SDS011;48397;53.016;-2.260;2023-04-03T04:38:26;13.43;;;6.03;;
44670;SDS011;48397;53.016;-2.260;2023-04-03T04:40:54;15.17;;;6.03;;
44670;SDS011;48397;53.016;-2.260;2023-04-03T04:43:23;16.73;;;4.90;;
44670;SDS011;48397;53.016;-2.260;2023-04-03T04:46:27;15.63;;;5.90;;
44670;SDS011;48397;53.016;-2.260;2023-04-03T04:48:53;14.63;;;4.97;;
44670;SDS011;48397;53.016;-2.260;2023-04-03T04:51:22;21.50;;;5.33;;
44670;SDS011;48397;53.016;-2.260;2023-04-03T04:53:50;14.93;;;5.40;;
44670;SDS011;48397;53.016;-2.260;2023-04-03T04:56:21;16.73;;;6.10;;
44670;SDS011;48397;53.016;-2.260;2023-04-03T04:58:50;18.43;;;6.50;;
44670;SDS011;48397;53.016;-2.260;2023-04-03T05:01:19;22.03;;;6.20;;
44670;SDS011;48397;53.016;-2.260;2023-04-03T05:03:54;16.50;;;6.67;;
44670;SDS011;48397;53.016;-2.260;2023-04-03T05:06:24;17.00;;;6.43;;
44670;SDS011;48397;53.016;-2.260;2023-04-03T05:08:53;15.00;;;5.73;;
44670;SDS011;48397;53.016;-2.260;2023-04-03T05:11:22;14.80;;;5.83;;
44670;SDS011;48397;53.016;-2.260;2023-04-03T05:13:52;20.67;;;6.17;;
44670;SDS011;48397;53.016;-2.260;2023-04-03T05:16:22;21.47;;;6.97;;
44670;SDS011;48397;53.016;-2.260;2023-04-03T05:18:50;22.27;;;7.23;;
44670;SDS011;48397;53.016;-2.260;2023-04-03T05:21:22;16.93;;;6.53;;
44670;SDS011;48397;53.016;-2.260;2023-04-03T05:23:52;22.83;;;7.30;;
44670;SDS011;48397;53.016;-2.260;2023-04-03T05:26:24;17.63;;;6.10;;
44670;SDS011;48397;53.016;-2.260;2023-04-03T05:28:55;22.80;;;7.00;;
44670;SDS011;48397;53.016;-2.260;2023-04-03T05:31:25;22.20;;;6.83;;
44670;SDS011;48397;53.016;-2.260;2023-04-03T05:33:57;22.90;;;6.97;;
44670;SDS011;48397;53.016;-2.260;2023-04-03T05:36:30;23.73;;;7.40;;
44670;SDS011;48397;53.016;-2.260;2023-04-03T05:39:03;23.63;;;7.50;;
44670;SDS011;48397;53.016;-2.260;2023-04-03T05:41:37;20.57;;;7.83;;
44670;SDS011;48397;53.016;-2.260;2023-04-03T05:44:05;19.60;;;7.20;;
44670;SDS011;48397;53.016;-2.260;2023-04-03T05:46:33;20.50;;;8.18;;
44670;SDS011;48397;53.016;-2.260;2023-04-03T05:49:04;22.83;;;8.00;;
44670;SDS011;48397;53.016;-2.260;2023-04-03T05:51:35;21.10;;;8.63;;
44670;SDS011;48397;53.016;-2.260;2023-04-03T05:54:22;22.57;;;9.17;;
44670;SDS011;48397;53.016;-2.260;2023-04-03T05:57:08;30.87;;;10.57;;
44670;SDS011;48397;53.016;-2.260;2023-04-03T05:59:36;32.13;;;12.33;;
44670;SDS011;48397;53.016;-2.260;2023-04-03T06:02:04;31.90;;;13.05;;
44670;SDS011;48397;53.016;-2.260;2023-04-03T06:04:33;30.90;;;13.17;;
44670;SDS011;48397;53.016;-2.260;2023-04-03T06:07:01;33.17;;;13.85;;
44670;SDS011;48397;53.016;-2.260;2023-04-03T06:09:29;37.80;;;13.07;;
44670;SDS011;48397;53.016;-2.260;2023-04-03T06:11:58;39.70;;;14.00;;
44670;SDS011;48397;53.016;-2.260;2023-04-03T06:14:28;31.93;;;12.07;;
44670;SDS011;48397;53.016;-2.260;2023-04-03T06:16:56;25.95;;;11.32;;
44670;SDS011;48397;53.016;-2.260;2023-04-03T06:19:24;25.77;;;10.23;;
44670;SDS011;48397;53.016;-2.260;2023-04-03T06:21:55;23.80;;;9.23;;
44670;SDS011;48397;53.016;-2.260;2023-04-03T06:24:24;19.90;;;8.70;;
44670;SDS011;48397;53.016;-2.260;2023-04-03T06:31:48;16.48;;;7.25;;
44670;SDS011;48397;53.016;-2.260;2023-04-03T06:34:17;28.07;;;8.63;;
44670;SDS011;48397;53.016;-2.260;2023-04-03T06:36:47;21.93;;;8.27;;
44670;SDS011;48397;53.016;-2.260;2023-04-03T06:39:17;22.00;;;8.50;;
44670;SDS011;48397;53.016;-2.260;2023-04-03T06:41:52;19.00;;;8.27;;
44670;SDS011;48397;53.016;-2.260;2023-04-03T06:44:28;17.87;;;7.03;;
44670;SDS011;48397;53.016;-2.260;2023-04-03T06:46:56;16.48;;;7.50;;
44670;SDS011;48397;53.016;-2.260;2023-04-03T06:49:24;23.38;;;7.78;;
44670;SDS011;48397;53.016;-2.260;2023-04-03T06:51:52;18.10;;;7.78;;
44670;SDS011;48397;53.016;-2.260;2023-04-03T06:54:20;15.03;;;6.17;;
44670;SDS011;48397;53.016;-2.260;2023-04-03T06:56:48;24.33;;;6.65;;
44670;SDS011;48397;53.016;-2.260;2023-04-03T06:59:17;14.47;;;5.80;;
44670;SDS011;48397;53.016;-2.260;2023-04-03T07:04:13;15.37;;;5.53;;
44670;SDS011;48397;53.016;-2.260;2023-04-03T07:06:42;20.40;;;5.50;;
44670;SDS011;48397;53.016;-2.260;2023-04-03T07:09:10;16.33;;;5.00;;
44670;SDS011;48397;53.016;-2.260;2023-04-03T07:11:39;18.33;;;5.43;;
44670;SDS011;48397;53.016;-2.260;2023-04-03T07:16:34;14.67;;;4.97;;
44670;SDS011;48397;53.016;-2.260;2023-04-03T07:19:05;14.47;;;4.87;;
44670;SDS011;48397;53.016;-2.260;2023-04-03T07:21:33;15.65;;;4.57;;
44670;SDS011;48397;53.016;-2.260;2023-04-03T07:24:01;12.48;;;4.45;;
44670;SDS011;48397;53.016;-2.260;2023-04-03T07:26:29;10.75;;;4.13;;
44670;SDS011;48397;53.016;-2.260;2023-04-03T07:28:58;11.57;;;3.78;;
44670;SDS011;48397;53.016;-2.260;2023-04-03T07:31:29;12.80;;;3.53;;
44670;SDS011;48397;53.016;-2.260;2023-04-03T07:36:25;8.23;;;3.55;;
44670;SDS011;48397;53.016;-2.260;2023-04-03T07:43:49;15.65;;;4.10;;
44670;SDS011;48397;53.016;-2.260;2023-04-03T07:46:17;11.77;;;3.85;;
44670;SDS011;48397;53.016;-2.260;2023-04-03T07:48:45;17.60;;;3.85;;
44670;SDS011;48397;53.016;-2.260;2023-04-03T07:51:13;11.40;;;4.00;;
44670;SDS011;48397;53.016;-2.260;2023-04-03T07:53:42;12.13;;;4.00;;
44670;SDS011;48397;53.016;-2.260;2023-04-03T07:56:11;12.10;;;3.70;;
44670;SDS011;48397;53.016;-2.260;2023-04-03T07:58:40;13.07;;;4.15;;
44670;SDS011;48397;53.016;-2.260;2023-04-03T08:01:09;14.82;;;3.80;;
44670;SDS011;48397;53.016;-2.260;2023-04-03T08:03:37;11.13;;;3.28;;
44670;SDS011;48397;53.016;-2.260;2023-04-03T08:06:07;10.55;;;3.65;;
44670;SDS011;48397;53.016;-2.260;2023-04-03T08:08:42;8.10;;;3.53;;
44670;SDS011;48397;53.016;-2.260;2023-04-03T08:11:10;10.18;;;3.15;;
44670;SDS011;48397;53.016;-2.260;2023-04-03T08:13:38;6.25;;;2.90;;
44670;SDS011;48397;53.016;-2.260;2023-04-03T08:16:09;10.55;;;2.90;;
44670;SDS011;48397;53.016;-2.260;2023-04-03T08:18:43;7.30;;;2.72;;
44670;SDS011;48397;53.016;-2.260;2023-04-03T08:21:12;9.77;;;2.80;;
44670;SDS011;48397;53.016;-2.260;2023-04-03T08:23:40;7.65;;;2.45;;
44670;SDS011;48397;53.016;-2.260;2023-04-03T08:26:11;5.22;;;2.00;;
44670;SDS011;48397;53.016;-2.260;2023-04-03T08:28:41;6.90;;;2.92;;
44670;SDS011;48397;53.016;-2.260;2023-04-03T08:31:13;5.53;;;2.63;;
44670;SDS011;48397;53.016;-2.260;2023-04-03T08:33:44;6.57;;;2.28;;
44670;SDS011;48397;53.016;-2.260;2023-04-03T08:36:20;9.55;;;2.72;;
44670;SDS011;48397;53.016;-2.260;2023-04-03T08:38:51;10.20;;;2.30;;
44670;SDS011;48397;53.016;-2.260;2023-04-03T08:46:54;10.95;;;3.00;;
44670;SDS011;48397;53.016;-2.260;2023-04-03T08:49:33;5.00;;;2.10;;
44670;SDS011;48397;53.016;-2.260;2023-04-03T08:52:10;8.40;;;2.65;;
44670;SDS011;48397;53.016;-2.260;2023-04-03T08:57:41;12.02;;;3.20;;
44670;SDS011;48397;53.016;-2.260;2023-04-03T09:02:48;7.38;;;2.40;;
44670;SDS011;48397;53.016;-2.260;2023-04-03T09:05:19;10.63;;;2.65;;
44670;SDS011;48397;53.016;-2.260;2023-04-03T09:08:22;13.52;;;2.58;;
44670;SDS011;48397;53.016;-2.260;2023-04-03T09:11:16;15.73;;;3.35;;
44670;SDS011;48397;53.016;-2.260;2023-04-03T09:13:51;6.05;;;2.53;;
44670;SDS011;48397;53.016;-2.260;2023-04-03T09:16:33;8.27;;;2.45;;
44670;SDS011;48397;53.016;-2.260;2023-04-03T09:22:02;9.93;;;2.42;;
44670;SDS011;48397;53.016;-2.260;2023-04-03T09:25:02;6.60;;;2.33;;
44670;SDS011;48397;53.016;-2.260;2023-04-03T09:27:39;10.55;;;2.63;;
44670;SDS011;48397;53.016;-2.260;2023-04-03T09:30:23;7.78;;;3.08;;
44670;SDS011;48397;53.016;-2.260;2023-04-03T09:32:53;11.52;;;3.10;;
44670;SDS011;48397;53.016;-2.260;2023-04-03T09:35:27;13.32;;;3.10;;
44670;SDS011;48397;53.016;-2.260;2023-04-03T09:38:19;8.10;;;3.22;;
44670;SDS011;48397;53.016;-2.260;2023-04-03T09:40:50;6.45;;;2.78;;
44670;SDS011;48397;53.016;-2.260;2023-04-03T09:43:32;10.43;;;3.10;;
44670;SDS011;48397;53.016;-2.260;2023-04-03T09:49:03;9.98;;;3.00;;
44670;SDS011;48397;53.016;-2.260;2023-04-03T09:51:36;13.38;;;4.03;;
44670;SDS011;48397;53.016;-2.260;2023-04-03T09:57:10;11.55;;;3.33;;
44670;SDS011;48397;53.016;-2.260;2023-04-03T09:59:45;15.52;;;4.20;;
44670;SDS011;48397;53.016;-2.260;2023-04-03T10:02:24;12.05;;;3.60;;
44670;SDS011;48397;53.016;-2.260;2023-04-03T10:08:15;9.00;;;3.13;;
44670;SDS011;48397;53.016;-2.260;2023-04-03T10:10:49;12.65;;;3.65;;
44670;SDS011;48397;53.016;-2.260;2023-04-03T10:13:49;9.38;;;3.70;;
44670;SDS011;48397;53.016;-2.260;2023-04-03T10:19:03;10.95;;;3.30;;
44670;SDS011;48397;53.016;-2.260;2023-04-03T10:24:28;12.93;;;4.28;;
44670;SDS011;48397;53.016;-2.260;2023-04-03T10:30:02;7.85;;;3.15;;
44670;SDS011;48397;53.016;-2.260;2023-04-03T10:35:49;16.67;;;4.32;;
44670;SDS011;48397;53.016;-2.260;2023-04-03T10:46:49;10.93;;;4.22;;
44670;SDS011;48397;53.016;-2.260;2023-04-03T10:49:43;11.07;;;4.10;;
44670;SDS011;48397;53.016;-2.260;2023-04-03T10:55:34;10.88;;;4.35;;
44670;SDS011;48397;53.016;-2.260;2023-04-03T10:58:09;12.15;;;4.45;;
44670;SDS011;48397;53.016;-2.260;2023-04-03T11:01:02;11.30;;;4.85;;
44670;SDS011;48397;53.016;-2.260;2023-04-03T11:03:36;11.93;;;4.90;;
44670;SDS011;48397;53.016;-2.260;2023-04-03T11:06:09;15.95;;;5.38;;
44670;SDS011;48397;53.016;-2.260;2023-04-03T11:08:48;11.18;;;4.82;;
44670;SDS011;48397;53.016;-2.260;2023-04-03T11:11:26;17.45;;;5.47;;
44670;SDS011;48397;53.016;-2.260;2023-04-03T11:16:52;13.48;;;5.30;;
44670;SDS011;48397;53.016;-2.260;2023-04-03T11:22:35;10.60;;;5.10;;
44670;SDS011;48397;53.016;-2.260;2023-04-03T11:27:41;9.85;;;4.75;;
44670;SDS011;48397;53.016;-2.260;2023-04-03T11:30:48;8.80;;;3.88;;
44670;SDS011;48397;53.016;-2.260;2023-04-03T11:35:48;10.52;;;4.88;;
44670;SDS011;48397;53.016;-2.260;2023-04-03T11:38:36;12.80;;;4.97;;
44670;SDS011;48397;53.016;-2.260;2023-04-03T11:41:08;12.48;;;5.15;;
44670;SDS011;48397;53.016;-2.260;2023-04-03T11:44:00;14.25;;;4.93;;
44670;SDS011;48397;53.016;-2.260;2023-04-03T12:13:40;7.95;;;4.10;;
44670;SDS011;48397;53.016;-2.260;2023-04-03T12:16:21;10.07;;;4.97;;
44670;SDS011;48397;53.016;-2.260;2023-04-03T12:21:23;7.07;;;4.82;;
44670;SDS011;48397;53.016;-2.260;2023-04-03T12:24:00;10.85;;;5.07;;
44670;SDS011;48397;53.016;-2.260;2023-04-03T12:26:32;16.63;;;5.35;;
44670;SDS011;48397;53.016;-2.260;2023-04-03T12:43:33;12.27;;;5.40;;
44670;SDS011;48397;53.016;-2.260;2023-04-03T12:46:12;16.42;;;6.25;;
44670;SDS011;48397;53.016;-2.260;2023-04-03T12:48:53;10.73;;;4.50;;
44670;SDS011;48397;53.016;-2.260;2023-04-03T12:51:30;12.10;;;4.97;;
44670;SDS011;48397;53.016;-2.260;2023-04-03T12:54:16;11.32;;;3.90;;
44670;SDS011;48397;53.016;-2.260;2023-04-03T12:56:51;8.13;;;3.85;;
44670;SDS011;48397;53.016;-2.260;2023-04-03T12:59:22;9.40;;;4.25;;
44670;SDS011;48397;53.016;-2.260;2023-04-03T13:01:56;8.90;;;3.75;;
44670;SDS011;48397;53.016;-2.260;2023-04-03T13:04:26;8.70;;;4.38;;
44670;SDS011;48397;53.016;-2.260;2023-04-03T13:06:57;6.82;;;3.97;;
44670;SDS011;48397;53.016;-2.260;2023-04-03T13:09:26;9.65;;;4.50;;
44670;SDS011;48397;53.016;-2.260;2023-04-03T13:12:01;8.05;;;4.18;;
44670;SDS011;48397;53.016;-2.260;2023-04-03T13:14:38;12.65;;;4.72;;
44670;SDS011;48397;53.016;-2.260;2023-04-03T13:17:10;9.48;;;4.32;;
44670;SDS011;48397;53.016;-2.260;2023-04-03T13:19:41;4.85;;;3.30;;
44670;SDS011;48397;53.016;-2.260;2023-04-03T13:25:11;7.22;;;3.38;;
44670;SDS011;48397;53.016;-2.260;2023-04-03T13:27:41;7.07;;;3.50;;
44670;SDS011;48397;53.016;-2.260;2023-04-03T13:30:28;8.95;;;3.58;;
44670;SDS011;48397;53.016;-2.260;2023-04-03T13:32:59;6.97;;;3.90;;
44670;SDS011;48397;53.016;-2.260;2023-04-03T13:35:37;8.02;;;3.33;;
44670;SDS011;48397;53.016;-2.260;2023-04-03T13:40:50;11.93;;;3.88;;
44670;SDS011;48397;53.016;-2.260;2023-04-03T13:43:28;7.10;;;3.80;;
44670;SDS011;48397;53.016;-2.260;2023-04-03T13:48:41;9.80;;;3.80;;
44670;SDS011;48397;53.016;-2.260;2023-04-03T13:53:51;10.60;;;4.25;;
44670;SDS011;48397;53.016;-2.260;2023-04-03T14:01:48;10.50;;;3.55;;
44670;SDS011;48397;53.016;-2.260;2023-04-03T14:04:19;5.93;;;3.40;;
44670;SDS011;48397;53.016;-2.260;2023-04-03T14:06:58;6.70;;;3.60;;
44670;SDS011;48397;53.016;-2.260;2023-04-03T14:09:27;7.65;;;3.38;;
44670;SDS011;48397;53.016;-2.260;2023-04-03T14:11:58;7.60;;;4.20;;
44670;SDS011;48397;53.016;-2.260;2023-04-03T14:14:35;8.57;;;3.58;;
44670;SDS011;48397;53.016;-2.260;2023-04-03T14:17:17;8.48;;;3.65;;
44670;SDS011;48397;53.016;-2.260;2023-04-03T14:19:55;10.27;;;3.42;;
44670;SDS011;48397;53.016;-2.260;2023-04-03T14:24:53;9.07;;;3.83;;
44670;SDS011;48397;53.016;-2.260;2023-04-03T14:27:29;7.50;;;3.50;;
44670;SDS011;48397;53.016;-2.260;2023-04-03T14:30:02;10.85;;;4.25;;
44670;SDS011;48397;53.016;-2.260;2023-04-03T14:32:32;7.78;;;3.42;;
44670;SDS011;48397;53.016;-2.260;2023-04-03T14:35:01;8.20;;;4.10;;
44670;SDS011;48397;53.016;-2.260;2023-04-03T14:37:33;7.65;;;4.22;;
44670;SDS011;48397;53.016;-2.260;2023-04-03T14:40:03;11.73;;;4.82;;
44670;SDS011;48397;53.016;-2.260;2023-04-03T14:42:34;16.58;;;8.52;;
44670;SDS011;48397;53.016;-2.260;2023-04-03T14:45:08;10.63;;;4.55;;
44670;SDS011;48397;53.016;-2.260;2023-04-03T14:47:46;7.20;;;3.80;;
44670;SDS011;48397;53.016;-2.260;2023-04-03T14:50:21;10.23;;;3.60;;
44670;SDS011;48397;53.016;-2.260;2023-04-03T14:52:56;9.75;;;4.50;;
44670;SDS011;48397;53.016;-2.260;2023-04-03T14:55:26;6.72;;;3.38;;
44670;SDS011;48397;53.016;-2.260;2023-04-03T14:57:55;7.50;;;3.40;;
44670;SDS011;48397;53.016;-2.260;2023-04-03T15:00:24;6.88;;;3.00;;
44670;SDS011;48397;53.016;-2.260;2023-04-03T15:02:52;6.43;;;3.40;;
44670;SDS011;48397;53.016;-2.260;2023-04-03T15:05:20;8.02;;;3.78;;
44670;SDS011;48397;53.016;-2.260;2023-04-03T15:10:29;11.10;;;4.97;;
44670;SDS011;48397;53.016;-2.260;2023-04-03T15:12:58;7.63;;;3.90;;
44670;SDS011;48397;53.016;-2.260;2023-04-03T15:15:27;10.90;;;4.07;;
44670;SDS011;48397;53.016;-2.260;2023-04-03T15:17:57;9.57;;;3.60;;
44670;SDS011;48397;53.016;-2.260;2023-04-03T15:20:25;10.57;;;3.53;;
44670;SDS011;48397;53.016;-2.260;2023-04-03T15:22:54;7.78;;;3.80;;
44670;SDS011;48397;53.016;-2.260;2023-04-03T15:25:23;9.48;;;3.70;;
44670;SDS011;48397;53.016;-2.260;2023-04-03T15:27:53;8.25;;;3.17;;
44670;SDS011;48397;53.016;-2.260;2023-04-03T15:30:24;5.95;;;3.47;;
44670;SDS011;48397;53.016;-2.260;2023-04-03T15:32:53;10.38;;;4.40;;
44670;SDS011;48397;53.016;-2.260;2023-04-03T15:35:21;8.20;;;3.70;;
44670;SDS011;48397;53.016;-2.260;2023-04-03T15:37:50;9.43;;;4.47;;
44670;SDS011;48397;53.016;-2.260;2023-04-03T15:40:18;8.63;;;3.65;;
44670;SDS011;48397;53.016;-2.260;2023-04-03T15:42:46;10.15;;;3.58;;
44670;SDS011;48397;53.016;-2.260;2023-04-03T15:45:16;7.95;;;3.35;;
44670;SDS011;48397;53.016;-2.260;2023-04-03T15:47:44;13.55;;;4.63;;
44670;SDS011;48397;53.016;-2.260;2023-04-03T15:50:12;7.60;;;3.47;;
44670;SDS011;48397;53.016;-2.260;2023-04-03T15:52:40;7.38;;;3.45;;
44670;SDS011;48397;53.016;-2.260;2023-04-03T15:57:35;7.70;;;3.40;;
44670;SDS011;48397;53.016;-2.260;2023-04-03T16:00:06;11.55;;;3.55;;
44670;SDS011;48397;53.016;-2.260;2023-04-03T16:02:34;10.68;;;3.58;;
44670;SDS011;48397;53.016;-2.260;2023-04-03T16:05:02;8.60;;;3.72;;
44670;SDS011;48397;53.016;-2.260;2023-04-03T16:07:30;8.88;;;3.75;;
44670;SDS011;48397;53.016;-2.260;2023-04-03T16:09:58;6.68;;;3.55;;
44670;SDS011;48397;53.016;-2.260;2023-04-03T16:12:26;8.43;;;3.65;;
44670;SDS011;48397;53.016;-2.260;2023-04-03T16:14:54;9.15;;;3.50;;
44670;SDS011;48397;53.016;-2.260;2023-04-03T16:17:22;8.02;;;3.70;;
44670;SDS011;48397;53.016;-2.260;2023-04-03T16:22:17;9.65;;;3.30;;
44670;SDS011;48397;53.016;-2.260;2023-04-03T16:27:12;10.85;;;3.92;;
44670;SDS011;48397;53.016;-2.260;2023-04-03T16:29:40;8.10;;;3.75;;
44670;SDS011;48397;53.016;-2.260;2023-04-03T16:32:08;9.82;;;3.80;;
44670;SDS011;48397;53.016;-2.260;2023-04-03T16:34:36;6.65;;;3.88;;
44670;SDS011;48397;53.016;-2.260;2023-04-03T16:37:04;9.82;;;3.63;;
44670;SDS011;48397;53.016;-2.260;2023-04-03T16:39:32;8.15;;;3.30;;
44670;SDS011;48397;53.016;-2.260;2023-04-03T16:42:00;7.53;;;3.30;;
44670;SDS011;48397;53.016;-2.260;2023-04-03T16:44:27;7.65;;;3.47;;
44670;SDS011;48397;53.016;-2.260;2023-04-03T16:49:23;8.05;;;3.30;;
44670;SDS011;48397;53.016;-2.260;2023-04-03T16:51:52;9.23;;;3.92;;
44670;SDS011;48397;53.016;-2.260;2023-04-03T16:54:20;8.98;;;3.80;;
44670;SDS011;48397;53.016;-2.260;2023-04-03T16:56:48;7.80;;;3.63;;
44670;SDS011;48397;53.016;-2.260;2023-04-03T16:59:16;6.95;;;3.92;;
44670;SDS011;48397;53.016;-2.260;2023-04-03T17:01:44;7.40;;;3.47;;
44670;SDS011;48397;53.016;-2.260;2023-04-03T17:04:12;10.82;;;4.05;;
44670;SDS011;48397;53.016;-2.260;2023-04-03T17:06:40;8.65;;;4.00;;
44670;SDS011;48397;53.016;-2.260;2023-04-03T17:09:08;10.35;;;4.20;;
44670;SDS011;48397;53.016;-2.260;2023-04-03T17:11:37;8.65;;;3.60;;
44670;SDS011;48397;53.016;-2.260;2023-04-03T17:14:05;7.32;;;3.83;;
44670;SDS011;48397;53.016;-2.260;2023-04-03T17:19:02;9.77;;;4.28;;
44670;SDS011;48397;53.016;-2.260;2023-04-03T17:21:31;9.52;;;3.70;;
44670;SDS011;48397;53.016;-2.260;2023-04-03T17:24:00;6.32;;;3.53;;
44670;SDS011;48397;53.016;-2.260;2023-04-03T17:26:35;7.45;;;3.67;;
44670;SDS011;48397;53.016;-2.260;2023-04-03T17:29:05;8.32;;;4.00;;
44670;SDS011;48397;53.016;-2.260;2023-04-03T17:31:34;6.70;;;4.03;;
44670;SDS011;48397;53.016;-2.260;2023-04-03T17:34:04;7.85;;;3.88;;
44670;SDS011;48397;53.016;-2.260;2023-04-03T17:36:35;8.80;;;4.45;;
44670;SDS011;48397;53.016;-2.260;2023-04-03T17:39:07;9.48;;;5.30;;
44670;SDS011;48397;53.016;-2.260;2023-04-03T17:41:35;8.73;;;4.78;;
44670;SDS011;48397;53.016;-2.260;2023-04-03T17:44:03;14.85;;;6.93;;
44670;SDS011;48397;53.016;-2.260;2023-04-03T17:46:31;9.02;;;4.50;;
44670;SDS011;48397;53.016;-2.260;2023-04-03T17:49:01;8.02;;;5.45;;
44670;SDS011;48397;53.016;-2.260;2023-04-03T17:51:29;9.48;;;5.05;;
44670;SDS011;48397;53.016;-2.260;2023-04-03T17:54:01;9.27;;;5.05;;
44670;SDS011;48397;53.016;-2.260;2023-04-03T17:56:29;9.52;;;5.13;;